DNMM/LOS METAR and TAF weather

Enter ICAO airport designator
Station Type Date Time Source
DNMM METAR 2020/07/07 09:00 UTC NOAA

DNMM 070900Z 22003KT 8000 -TSRA BKN008 FEW018CB 24/23 Q1013 NOSIG


Station Type Date Time Source
DNMM Decoded METAR 2020/07/07 09:00 UTC NOAA

Lagos / Ikeja, Nigeria (DNMM) 06-35N 003-20E 38M
Jul 07, 2020 - 05:00 AM EDT / 2020.07.07 0900 UTC
Wind: from the SW (220 degrees) at 3 MPH (3 KT):0
Visibility: 4 mile(s):0
Sky conditions: mostly cloudy
Weather: light rain with thunder; Cumulonimbus clouds observed
Temperature: 75 F (24 C)
Dew Point: 73 F (23 C)
Relative Humidity: 94%
Pressure (altimeter): 29.91 in. Hg (1013 hPa)
ob: DNMM 070900Z 22003KT 8000 -TSRA BKN008 FEW018CB 24/23 Q1013 NOSIG
cycle: 9

Station Type Date Time Source
DNMM TAF 2020/07/07 06:36 UTC NOAA

TAF TAF DNMM 070500Z 0706/0812 VRB02KT 8000 TS SCT010 FEW019CB
TEMPO 0706/0708 5000 TS BR PROB30
TEMPO 0706/0709 3000 -TSRA BKN008 FEW018CB
BECMG 0709/0711 23010KT NSW BKN013
TEMPO 0712/0718 TS SCT011 FEW020CB
BECMG 0718/0720 VRB02KT SCT011
TEMPO 0805/0807 5000 BR
BECMG 0808/0810 24010KT BKN012

Example: see airport list